Time;durP1;ratioP1;P1;durP2;ratioP2;P2;SDS_P1;SDS_P2;PMS_P1;PMS_P2;Temp;Humidity;BMP_temperature;BMP_pressure;BME280_temperature;BME280_humidity;BME280_pressure;Samples;Min_cycle;Max_cycle;Signal;HPM_P1;HPM_P2
2023/10/11 00:01:22;;;;;;;1.00;0.50;;;;;;;15.25;100.00;100853.19;5104143;27;20471;-68
2023/10/11 00:03:53;;;;;;;3.77;1.03;;;;;;;15.27;100.00;100855.69;5031906;28;20467;-67
2023/10/11 00:06:25;;;;;;;1.00;0.70;;;;;;;15.33;100.00;100852.03;5030214;28;20423;-68
2023/10/11 00:08:55;;;;;;;0.80;0.40;;;;;;;15.34;100.00;100851.81;5032026;28;20486;-69
2023/10/11 00:11:27;;;;;;;3.47;2.10;;;;;;;15.36;100.00;100848.81;5028846;28;20442;-69
2023/10/11 00:13:57;;;;;;;0.80;0.40;;;;;;;15.27;100.00;100855.69;5028269;28;20400;-68
2023/10/11 00:16:27;;;;;;;1.00;0.83;;;;;;;15.33;100.00;100857.50;5028855;28;20479;-68
2023/10/11 00:18:56;;;;;;;1.13;1.03;;;;;;;15.26;100.00;100849.41;5029065;28;20798;-69
2023/10/11 00:21:40;;;;;;;0.80;0.47;;;;;;;15.11;100.00;100847.13;5029732;28;20423;-68
2023/10/11 00:24:09;;;;;;;0.80;0.50;;;;;;;15.16;100.00;100841.78;5026921;28;20468;-68
2023/10/11 00:26:40;;;;;;;0.80;0.40;;;;;;;15.10;100.00;100840.00;5026824;28;20527;-69
2023/10/11 00:29:11;;;;;;;1.00;0.60;;;;;;;15.16;100.00;100839.06;5029235;28;20785;-69
2023/10/11 00:31:40;;;;;;;0.90;0.60;;;;;;;15.22;100.00;100837.31;5027016;28;20456;-68
2023/10/11 00:34:12;;;;;;;0.80;0.50;;;;;;;15.20;100.00;100834.81;5048120;27;20814;-67
2023/10/11 00:36:45;;;;;;;1.00;0.50;;;;;;;15.22;100.00;100838.16;5029065;28;20432;-68
2023/10/11 00:39:17;;;;;;;1.47;0.60;;;;;;;15.14;100.00;100846.66;5096474;28;20430;-70
2023/10/11 00:41:49;;;;;;;2.30;2.10;;;;;;;15.05;100.00;100842.63;5097742;28;20491;-70
2023/10/11 00:44:20;;;;;;;0.80;0.40;;;;;;;14.96;100.00;100832.28;5026464;28;20457;-70
2023/10/11 00:46:59;;;;;;;0.80;0.40;;;;;;;14.88;100.00;100822.53;5036059;28;21007;-71
2023/10/11 00:49:36;;;;;;;0.80;0.40;;;;;;;14.89;100.00;100826.91;5025291;28;20428;-69
2023/10/11 00:52:07;;;;;;;0.80;0.50;;;;;;;14.93;100.00;100828.13;5029078;28;20483;-68
2023/10/11 00:54:43;;;;;;;1.20;0.70;;;;;;;14.93;100.00;100822.66;5095098;28;20444;-69
2023/10/11 00:57:15;;;;;;;1.30;0.80;;;;;;;15.02;100.00;100820.44;5024251;28;20402;-70
2023/10/11 00:59:44;;;;;;;1.00;0.70;;;;;;;14.92;100.00;100812.81;5025144;28;20421;-69
2023/10/11 01:02:15;;;;;;;0.90;0.53;;;;;;;15.10;100.00;100806.50;5026609;28;20451;-69
2023/10/11 01:04:44;;;;;;;3.13;0.70;;;;;;;15.00;100.00;100807.06;5027864;28;20435;-67
2023/10/11 01:07:14;;;;;;;0.90;0.60;;;;;;;14.97;100.00;100801.22;5029767;28;20400;-68
2023/10/11 01:09:43;;;;;;;0.80;0.50;;;;;;;15.03;100.00;100812.03;5108932;27;20430;-68
2023/10/11 01:12:13;;;;;;;0.80;0.50;;;;;;;15.16;100.00;100819.16;5031189;28;20803;-70
2023/10/11 01:14:56;;;;;;;0.80;0.50;;;;;;;15.11;100.00;100808.97;5112763;27;20800;-68
2023/10/11 01:17:27;;;;;;;0.90;0.70;;;;;;;15.21;100.00;100803.75;5027038;28;20475;-69
2023/10/11 01:19:56;;;;;;;0.80;0.40;;;;;;;15.17;100.00;100808.03;5060169;28;20415;-69
2023/10/11 01:22:28;;;;;;;0.80;0.50;;;;;;;15.15;100.00;100807.41;5026728;28;20932;-69
2023/10/11 01:25:00;;;;;;;0.90;0.70;;;;;;;15.03;100.00;100795.69;5025901;28;20777;-69
2023/10/11 01:27:31;;;;;;;0.80;0.40;;;;;;;15.12;100.00;100802.44;5025668;28;20464;-69
2023/10/11 01:29:59;;;;;;;0.80;0.40;;;;;;;15.14;100.00;100785.88;5025260;28;20436;-70
2023/10/11 01:32:28;;;;;;;1.40;0.70;;;;;;;15.19;100.00;100795.00;5085210;28;20469;-68
2023/10/11 01:34:57;;;;;;;1.07;0.97;;;;;;;15.21;100.00;100797.47;5023059;28;20402;-68
2023/10/11 01:37:28;;;;;;;0.80;0.50;;;;;;;15.15;100.00;100788.34;5041311;28;20462;-67
2023/10/11 01:39:57;;;;;;;0.80;0.40;;;;;;;15.14;100.00;100783.97;5094191;27;20419;-69
2023/10/11 01:42:26;;;;;;;14.23;1.23;;;;;;;15.10;100.00;100776.50;5098165;27;20477;-68
2023/10/11 01:44:55;;;;;;;0.80;0.50;;;;;;;15.05;100.00;100776.38;5083450;27;20448;-68
2023/10/11 01:47:23;;;;;;;0.97;0.70;;;;;;;15.10;100.00;100769.13;5025250;28;21034;-68
2023/10/11 01:49:52;;;;;;;0.80;0.40;;;;;;;15.04;100.00;100764.66;5027696;28;20417;-68
2023/10/11 01:52:25;;;;;;;0.80;0.60;;;;;;;15.00;100.00;100758.00;5096905;27;20491;-68
2023/10/11 01:54:56;;;;;;;0.80;0.50;;;;;;;15.05;100.00;100760.88;5019370;28;20421;-70
2023/10/11 01:57:25;;;;;;;0.80;0.40;;;;;;;15.11;100.00;100759.06;5108205;27;20440;-69
2023/10/11 01:59:54;;;;;;;0.80;0.50;;;;;;;15.04;100.00;100766.53;5101489;27;20414;-69
2023/10/11 02:02:27;;;;;;;1.00;0.60;;;;;;;15.01;100.00;100762.38;5082024;27;20468;-69
2023/10/11 02:04:59;;;;;;;0.80;0.40;;;;;;;14.93;100.00;100757.28;5023498;28;20435;-69
2023/10/11 02:07:31;;;;;;;0.80;0.40;;;;;;;14.84;100.00;100761.41;5085409;28;20416;-69
2023/10/11 02:10:03;;;;;;;0.80;0.40;;;;;;;14.85;100.00;100762.22;5090713;28;20841;-68
2023/10/11 02:12:31;;;;;;;0.80;0.40;;;;;;;14.79;100.00;100755.81;5104316;27;20480;-68
2023/10/11 02:15:07;;;;;;;0.80;0.40;;;;;;;14.97;100.00;100753.00;5027671;28;20424;-69
2023/10/11 02:17:38;;;;;;;0.80;0.40;;;;;;;14.84;100.00;100747.78;5094261;28;20849;-68
2023/10/11 02:20:13;;;;;;;0.80;0.43;;;;;;;14.84;100.00;100742.34;5023748;28;20424;-69
2023/10/11 02:22:44;;;;;;;0.80;0.40;;;;;;;14.73;100.00;100746.69;5095415;28;20434;-67
2023/10/11 02:25:16;;;;;;;0.80;0.40;;;;;;;14.72;100.00;100747.75;5026311;28;20446;-69
2023/10/11 02:27:45;;;;;;;0.80;0.50;;;;;;;14.74;100.00;100755.69;5034632;28;20466;-69
2023/10/11 02:30:19;;;;;;;1.10;0.67;;;;;;;14.78;100.00;100748.69;5095455;28;20989;-70
2023/10/11 02:32:49;;;;;;;0.80;0.40;;;;;;;14.72;100.00;100744.19;5024628;28;20501;-69
2023/10/11 02:35:19;;;;;;;1.20;0.60;;;;;;;14.54;100.00;100738.81;5028233;28;20415;-69
2023/10/11 02:37:48;;;;;;;0.80;0.40;;;;;;;14.56;100.00;100728.53;5022963;28;20493;-69
2023/10/11 02:40:22;;;;;;;0.90;0.53;;;;;;;14.42;100.00;100721.63;5022129;28;20433;-69
2023/10/11 02:42:55;;;;;;;0.80;0.40;;;;;;;14.45;100.00;100721.13;5029007;28;20463;-70
2023/10/11 02:45:24;;;;;;;0.80;0.50;;;;;;;14.56;100.00;100717.63;5026924;28;20439;-68
2023/10/11 02:47:59;;;;;;;0.80;0.40;;;;;;;14.59;100.00;100714.44;5021399;28;20432;-68
2023/10/11 02:50:28;;;;;;;0.80;0.40;;;;;;;14.59;100.00;100723.44;5024465;28;20434;-69
2023/10/11 02:53:05;;;;;;;0.80;0.40;;;;;;;14.47;100.00;100719.03;5024398;28;20434;-67
2023/10/11 02:55:38;;;;;;;0.80;0.50;;;;;;;14.56;100.00;100709.47;5091578;28;20450;-70
2023/10/11 02:58:07;;;;;;;0.80;0.40;;;;;;;14.50;100.00;100700.31;5025198;28;20494;-68
2023/10/11 03:00:36;;;;;;;0.97;0.70;;;;;;;14.69;100.00;100695.63;5024640;28;20402;-68
2023/10/11 03:03:08;;;;;;;0.80;0.50;;;;;;;14.66;100.00;100696.13;5034565;28;20817;-68
2023/10/11 03:05:38;;;;;;;0.80;0.50;;;;;;;14.76;100.00;100690.94;5093478;28;21233;-68
2023/10/11 03:08:19;;;;;;;0.80;0.50;;;;;;;14.81;100.00;100679.31;5102355;28;20547;-67
2023/10/11 03:10:54;;;;;;;0.80;0.50;;;;;;;14.86;100.00;100683.00;5041297;28;20503;-69
2023/10/11 03:13:25;;;;;;;3.13;1.13;;;;;;;14.87;100.00;100681.09;5087681;28;20427;-68
2023/10/11 03:15:57;;;;;;;0.80;0.40;;;;;;;14.83;100.00;100691.63;5090368;28;21044;-69
2023/10/11 03:18:31;;;;;;;0.80;0.40;;;;;;;14.76;100.00;100690.94;5024636;28;20440;-68
2023/10/11 03:21:15;;;;;;;1.13;0.93;;;;;;;14.68;100.00;100683.91;5028594;28;20406;-69
2023/10/11 03:23:47;;;;;;;1.90;0.60;;;;;;;14.62;100.00;100673.13;5027243;28;20464;-69
2023/10/11 03:26:22;;;;;;;0.80;0.40;;;;;;;14.59;100.00;100673.59;5029632;28;20468;-68
2023/10/11 03:28:57;;;;;;;5.70;0.70;;;;;;;14.56;100.00;100674.06;5028417;28;20428;-69
2023/10/11 03:31:28;;;;;;;1.77;1.57;;;;;;;14.53;100.00;100675.34;5029520;28;20452;-70
2023/10/11 03:33:59;;;;;;;0.80;0.60;;;;;;;14.39;100.00;100668.44;5038459;28;20411;-70
2023/10/11 03:36:34;;;;;;;1.10;0.90;;;;;;;14.38;100.00;100655.88;5033432;28;20403;-70
2023/10/11 03:39:09;;;;;;;0.80;0.40;;;;;;;14.45;100.00;100666.69;5033582;28;20409;-69
2023/10/11 03:41:44;;;;;;;1.57;0.93;;;;;;;14.38;100.00;100660.53;5027429;28;20503;-68
2023/10/11 03:44:17;;;;;;;0.80;0.40;;;;;;;14.38;100.00;100657.81;5031945;28;20439;-69
2023/10/11 03:46:47;;;;;;;0.80;0.40;;;;;;;14.22;100.00;100654.66;5036381;28;20443;-69
2023/10/11 03:51:59;;;;;;;1.27;0.60;;;;;;;14.20;100.00;100650.50;5035600;28;20451;-68
2023/10/11 03:54:29;;;;;;;0.90;0.50;;;;;;;14.22;100.00;100654.66;5032916;28;20409;-68
2023/10/11 03:57:04;;;;;;;0.97;0.63;;;;;;;14.24;100.00;100644.34;5029853;28;20511;-69
2023/10/11 03:59:38;;;;;;;0.80;0.47;;;;;;;14.28;100.00;100642.81;5030876;28;20425;-69
2023/10/11 04:02:10;;;;;;;2.03;0.80;;;;;;;14.28;100.00;100642.81;5029545;28;20535;-69
2023/10/11 04:04:42;;;;;;;0.80;0.40;;;;;;;14.33;100.00;100642.13;5033180;28;20424;-67
2023/10/11 04:07:12;;;;;;;0.90;0.60;;;;;;;14.30;100.00;100642.59;5029188;28;20522;-69
2023/10/11 04:09:44;;;;;;;0.97;0.47;;;;;;;14.29;100.00;100652.66;5106076;27;20427;-68
2023/10/11 04:12:14;;;;;;;0.80;0.50;;;;;;;14.18;100.00;100648.03;5030013;28;20461;-68
2023/10/11 04:14:45;;;;;;;0.80;0.40;;;;;;;14.18;100.00;100653.47;5031043;28;20511;-69
2023/10/11 04:17:25;;;;;;;0.97;0.87;;;;;;;14.09;100.00;100651.25;5101015;27;20460;-68
2023/10/11 04:20:17;;;;;;;1.20;0.90;;;;;;;14.16;100.00;100647.41;5031061;28;20767;-70
2023/10/11 04:22:51;;;;;;;0.80;0.40;;;;;;;14.12;100.00;100646.22;5039029;28;20467;-71
2023/10/11 04:25:22;;;;;;;1.30;0.83;;;;;;;14.14;100.00;100646.78;5043847;28;20420;-69
2023/10/11 04:27:56;;;;;;;1.07;0.60;;;;;;;14.11;100.00;100644.53;5028742;28;20877;-69
2023/10/11 04:30:27;;;;;;;0.80;0.40;;;;;;;14.14;100.00;100654.13;5025883;28;20412;-69
2023/10/11 04:33:01;;;;;;;0.80;0.40;;;;;;;14.24;100.00;100660.69;5027824;28;20495;-70
2023/10/11 04:35:37;;;;;;;0.80;0.40;;;;;;;14.24;100.00;100641.63;5019284;28;20433;-69
2023/10/11 04:38:06;;;;;;;0.83;0.57;;;;;;;14.14;100.00;100640.53;5028827;28;20467;-69
2023/10/11 04:40:41;;;;;;;0.90;0.60;;;;;;;14.15;100.00;100634.84;5027422;28;20444;-69
2023/10/11 04:43:23;;;;;;;0.90;0.60;;;;;;;14.30;100.00;100632.53;5031253;28;20455;-68
2023/10/11 04:45:55;;;;;;;0.80;0.50;;;;;;;14.31;100.00;100638.81;5029702;28;20420;-69
2023/10/11 04:48:30;;;;;;;0.80;0.50;;;;;;;14.30;100.00;100635.25;5026273;28;20407;-70
2023/10/11 04:51:07;;;;;;;0.80;0.40;;;;;;;14.38;100.00;100638.75;5028922;28;20929;-68
2023/10/11 04:53:54;;;;;;;0.80;0.50;;;;;;;14.43;100.00;100633.41;5028836;28;20494;-69
2023/10/11 04:59:17;;;;;;;0.80;0.40;;;;;;;14.25;100.00;100637.00;5031291;28;20411;-69
2023/10/11 05:01:58;;;;;;;0.90;0.53;;;;;;;14.18;100.00;100630.84;5029082;28;20843;-68
2023/10/11 05:04:28;;;;;;;1.57;0.70;;;;;;;14.18;100.00;100637.13;5024908;28;20856;-70
2023/10/11 05:06:57;;;;;;;1.77;1.67;;;;;;;14.21;100.00;100646.72;5029251;28;20434;-68
2023/10/11 05:09:39;;;;;;;0.80;0.40;;;;;;;14.13;100.00;100631.56;5025265;28;20440;-69
2023/10/11 05:12:10;;;;;;;0.80;0.40;;;;;;;14.21;100.00;100636.66;5027521;28;20438;-70
2023/10/11 05:14:56;;;;;;;0.80;0.50;;;;;;;14.13;100.00;100639.72;5029889;28;20506;-69
2023/10/11 05:17:38;;;;;;;0.90;0.70;;;;;;;14.04;100.00;100643.00;5028337;28;20434;-70
2023/10/11 05:20:23;;;;;;;1.73;1.10;;;;;;;14.04;100.00;100643.78;5027287;28;20424;-69
2023/10/11 05:23:02;;;;;;;0.80;0.40;;;;;;;14.06;100.00;100638.97;5028091;28;21035;-69
2023/10/11 05:28:43;;;;;;;0.80;0.40;;;;;;;14.01;100.00;100632.56;5096250;28;20556;-70
2023/10/11 05:31:22;;;;;;;0.80;0.50;;;;;;;14.19;100.00;100630.59;5032578;28;20824;-71
2023/10/11 05:34:29;;;;;;;0.80;0.50;;;;;;;14.09;100.00;100629.50;5032569;28;20821;-68
2023/10/11 05:50:55;;;;;;;0.80;0.50;;;;;;;14.57;100.00;100634.88;5026582;28;20771;-68
2023/10/11 05:53:26;;;;;;;0.80;0.40;;;;;;;14.73;100.00;100636.91;5031354;28;20438;-69
2023/10/11 05:55:54;;;;;;;0.80;0.40;;;;;;;14.70;100.00;100631.94;5028441;28;20440;-69
2023/10/11 05:58:23;;;;;;;1.10;0.60;;;;;;;14.73;100.00;100632.28;5038979;28;20430;-70
2023/10/11 06:00:54;;;;;;;0.80;0.40;;;;;;;14.82;100.00;100630.03;5032222;28;20411;-69
2023/10/11 06:03:28;;;;;;;0.80;0.47;;;;;;;14.74;100.00;100633.94;5022301;28;20422;-69
2023/10/11 06:06:08;;;;;;;0.80;0.50;;;;;;;14.80;100.00;100626.72;5028514;28;20473;-71
2023/10/11 06:08:38;;;;;;;0.80;0.50;;;;;;;14.80;100.00;100626.72;5029714;28;20533;-70
2023/10/11 06:11:08;;;;;;;1.10;0.70;;;;;;;14.97;100.00;100629.56;5025068;28;20451;-67
2023/10/11 06:13:37;;;;;;;0.90;0.67;;;;;;;15.10;100.00;100627.41;5031758;28;20493;-68
2023/10/11 06:16:07;;;;;;;0.80;0.50;;;;;;;15.28;100.00;100622.91;5024480;27;20557;-70
2023/10/11 06:18:39;;;;;;;0.80;0.50;;;;;;;15.31;100.00;100616.97;5027592;28;20409;-68
2023/10/11 06:21:18;;;;;;;0.90;0.47;;;;;;;15.44;99.13;100612.06;5022448;28;20447;-66
2023/10/11 06:23:48;;;;;;;0.80;0.40;;;;;;;15.52;98.24;100613.66;5027432;28;20443;-69
2023/10/11 06:26:52;;;;;;;0.80;0.40;;;;;;;15.73;95.87;100613.00;5031712;28;20835;-68
2023/10/11 06:29:22;;;;;;;1.10;0.73;;;;;;;15.76;95.97;100620.69;5028916;28;20448;-69
2023/10/11 06:31:53;;;;;;;1.30;1.17;;;;;;;16.05;94.17;100624.25;5029388;28;21003;-70
2023/10/11 06:34:39;;;;;;;1.53;1.43;;;;;;;16.08;92.80;100619.09;5021222;28;20427;-70
2023/10/11 06:37:08;;;;;;;0.80;0.40;;;;;;;16.27;91.05;100629.81;5022769;28;20407;-69
2023/10/11 06:42:34;;;;;;;0.80;0.60;;;;;;;16.68;89.44;100634.94;5036427;28;20461;-66
2023/10/11 06:45:05;;;;;;;0.80;0.40;;;;;;;16.82;88.61;100629.97;5020831;28;21021;-69
2023/10/11 06:47:39;;;;;;;0.80;0.40;;;;;;;16.96;87.42;100623.06;5036856;28;20441;-68
2023/10/11 06:50:13;;;;;;;0.80;0.40;;;;;;;17.08;85.46;100637.47;5026987;28;20399;-69
2023/10/11 06:52:44;;;;;;;0.80;0.50;;;;;;;17.08;84.52;100640.22;5029141;28;20826;-67
2023/10/11 06:55:16;;;;;;;0.80;0.40;;;;;;;17.24;83.53;100639.34;5030407;28;20511;-70
2023/10/11 06:57:50;;;;;;;0.80;0.47;;;;;;;17.25;83.91;100630.06;5028511;28;20421;-70
2023/10/11 07:00:23;;;;;;;1.20;0.67;;;;;;;17.42;83.20;100638.22;5030364;28;20402;-69
2023/10/11 07:02:58;;;;;;;0.80;0.40;;;;;;;17.50;83.38;100637.78;5032284;28;20451;-69
2023/10/11 07:05:31;;;;;;;0.90;0.50;;;;;;;17.60;82.80;100637.94;5033144;28;20450;-70
2023/10/11 07:08:04;;;;;;;0.80;0.40;;;;;;;17.86;81.42;100633.63;5026442;28;20527;-69
2023/10/11 07:10:33;;;;;;;0.80;0.50;;;;;;;17.96;80.07;100632.91;5028853;28;20947;-69
2023/10/11 07:13:07;;;;;;;0.80;0.40;;;;;;;18.03;78.30;100636.25;5031991;28;21020;-69
2023/10/11 07:15:41;;;;;;;0.90;0.50;;;;;;;18.18;79.17;100633.69;5028075;28;20433;-68
2023/10/11 07:18:12;;;;;;;1.10;0.73;;;;;;;18.21;79.20;100635.88;5029037;28;20535;-68
2023/10/11 07:21:05;;;;;;;0.90;0.40;;;;;;;18.53;78.24;100625.84;5105281;27;20456;-66
2023/10/11 07:23:55;;;;;;;1.00;0.73;;;;;;;18.72;75.87;100622.69;5028808;27;20452;-70
2023/10/11 07:29:12;;;;;;;0.90;0.50;;;;;;;18.92;74.41;100633.81;5028811;28;20480;-69
2023/10/11 07:31:48;;;;;;;1.83;0.80;;;;;;;18.94;74.37;100632.44;5025236;28;20439;-69
2023/10/11 07:34:20;;;;;;;0.90;0.50;;;;;;;18.94;73.54;100642.56;5030040;28;20908;-68
2023/10/11 07:36:51;;;;;;;1.67;0.97;;;;;;;19.14;73.84;100644.63;5028192;28;20440;-69
2023/10/11 07:39:25;;;;;;;0.90;0.40;;;;;;;19.01;74.47;100632.22;5029285;28;20509;-70
2023/10/11 07:42:02;;;;;;;0.90;0.40;;;;;;;19.07;72.97;100637.47;5046424;28;20444;-69
2023/10/11 07:44:31;;;;;;;0.90;0.50;;;;;;;19.14;72.96;100626.25;5022425;28;20421;-69
2023/10/11 07:47:00;;;;;;;0.90;0.40;;;;;;;19.36;71.99;100618.72;5029127;28;20462;-68
2023/10/11 07:49:37;;;;;;;0.90;0.50;;;;;;;19.43;71.41;100626.69;5025720;28;20552;-68
2023/10/11 07:52:09;;;;;;;0.90;0.50;;;;;;;19.51;71.44;100631.69;5021951;28;20436;-69
2023/10/11 07:54:39;;;;;;;0.90;0.50;;;;;;;19.67;70.80;100616.94;5028741;28;20565;-67
2023/10/11 07:57:13;;;;;;;0.90;0.47;;;;;;;19.73;70.15;100615.88;5022472;28;20416;-69
2023/10/11 07:59:43;;;;;;;0.90;0.43;;;;;;;19.90;69.15;100615.66;5026269;28;20410;-68
2023/10/11 08:02:26;;;;;;;0.90;0.50;;;;;;;20.02;68.68;100621.75;5026621;28;20437;-70
2023/10/11 08:04:57;;;;;;;0.90;0.50;;;;;;;20.17;68.89;100613.53;5022913;28;20847;-70
2023/10/11 08:07:27;;;;;;;0.90;0.40;;;;;;;20.06;68.06;100611.84;5027968;28;20432;-68
2023/10/11 08:09:56;;;;;;;2.50;0.70;;;;;;;20.09;67.98;100616.00;5029846;28;20448;-71
2023/10/11 08:12:25;;;;;;;0.90;0.40;;;;;;;20.28;67.45;100604.19;5026282;28;20460;-69
2023/10/11 08:14:56;;;;;;;0.90;0.40;;;;;;;20.30;66.29;100601.19;5094851;27;20489;-69
2023/10/11 08:17:29;;;;;;;0.90;0.40;;;;;;;20.33;67.09;100601.47;5028866;28;20473;-70
2023/10/11 08:20:05;;;;;;;0.90;0.40;;;;;;;20.44;66.49;100599.56;5029100;28;20534;-70
2023/10/11 08:22:36;;;;;;;1.13;0.60;;;;;;;20.56;66.73;100610.28;5025203;28;20449;-68
2023/10/11 08:25:12;;;;;;;1.00;0.53;;;;;;;20.66;65.51;100608.38;5028702;28;20449;-70
2023/10/11 08:27:41;;;;;;;0.93;0.50;;;;;;;20.80;65.27;100605.88;5034048;28;20422;-68
2023/10/11 08:30:17;;;;;;;2.53;2.20;;;;;;;20.89;64.78;100612.47;5027407;28;20752;-69
2023/10/11 08:32:47;;;;;;;1.10;0.97;;;;;;;20.77;64.31;100611.91;5034008;28;20988;-71
2023/10/11 08:35:17;;;;;;;0.90;0.40;;;;;;;20.64;64.20;100602.31;5031137;28;20398;-68
2023/10/11 08:37:52;;;;;;;0.90;0.40;;;;;;;20.80;65.47;100614.13;5039614;28;20881;-70
2023/10/11 08:40:22;;;;;;;0.90;0.50;;;;;;;20.91;64.77;100618.53;5095910;27;20547;-67
2023/10/11 08:42:52;;;;;;;0.90;0.40;;;;;;;21.03;63.44;100620.97;5026475;28;20831;-68
2023/10/11 08:45:28;;;;;;;1.10;0.70;;;;;;;20.95;64.08;100622.38;5028435;28;20811;-69
2023/10/11 08:47:58;;;;;;;1.03;0.60;;;;;;;21.13;63.29;100632.81;5028153;28;20440;-70
2023/10/11 08:50:32;;;;;;;0.90;0.40;;;;;;;20.97;63.17;100616.56;5030752;28;20424;-68
2023/10/11 08:53:08;;;;;;;1.10;0.50;;;;;;;21.06;62.15;100612.16;5044841;28;20546;-68
2023/10/11 08:55:40;;;;;;;3.00;1.10;;;;;;;21.05;63.52;100616.84;5025595;28;20406;-67
2023/10/11 08:58:23;;;;;;;0.90;0.50;;;;;;;21.10;62.99;100614.09;5028753;28;20523;-69
2023/10/11 09:00:55;;;;;;;0.90;0.47;;;;;;;21.18;62.61;100605.28;5026177;28;21172;-69
2023/10/11 09:03:26;;;;;;;1.00;0.50;;;;;;;21.10;61.40;100607.78;5026429;28;20428;-67
2023/10/11 09:06:00;;;;;;;1.00;0.50;;;;;;;21.00;61.93;100611.38;5027997;28;20952;-71
2023/10/11 09:08:33;;;;;;;0.90;0.40;;;;;;;21.06;62.91;100607.47;5032053;28;20979;-69
2023/10/11 09:11:11;;;;;;;1.00;0.50;;;;;;;21.27;61.58;100610.22;5026904;28;20452;-68
2023/10/11 09:13:42;;;;;;;0.90;0.40;;;;;;;21.59;60.79;100616.19;5025710;28;20432;-68
2023/10/11 09:16:34;;;;;;;0.90;0.40;;;;;;;21.63;61.89;100611.75;5021532;28;20516;-68
2023/10/11 09:19:06;;;;;;;0.90;0.40;;;;;;;21.56;58.85;100597.44;5023246;28;20458;-70
2023/10/11 09:21:36;;;;;;;2.53;0.70;;;;;;;21.68;60.36;100618.06;5035338;28;20458;-69
2023/10/11 09:24:24;;;;;;;0.90;0.40;;;;;;;21.81;60.36;100622.13;5025833;28;20467;-68
2023/10/11 09:27:12;;;;;;;1.03;0.77;;;;;;;21.73;60.40;100631.00;5025959;28;20523;-67
2023/10/11 09:29:42;;;;;;;0.90;0.50;;;;;;;21.80;59.45;100625.97;5020988;28;20483;-65
2023/10/11 09:32:13;;;;;;;0.90;0.50;;;;;;;21.64;59.38;100627.13;5025884;28;20467;-69
2023/10/11 09:34:42;;;;;;;1.87;0.67;;;;;;;21.75;58.76;100628.75;5023689;28;20438;-67
2023/10/11 09:37:11;;;;;;;1.47;1.37;;;;;;;21.72;58.00;100615.56;5026541;28;20428;-67
2023/10/11 09:39:42;;;;;;;0.90;0.50;;;;;;;21.67;59.06;100608.16;5089690;27;20550;-69
2023/10/11 09:42:13;;;;;;;0.90;0.40;;;;;;;21.74;59.01;100613.31;5027319;28;20805;-67
2023/10/11 09:44:47;;;;;;;3.63;0.70;;;;;;;21.72;59.03;100623.81;5026356;28;20406;-69
2023/10/11 09:47:17;;;;;;;1.20;0.60;;;;;;;21.85;58.73;100609.44;5023082;28;20460;-68
2023/10/11 09:49:47;;;;;;;1.00;0.50;;;;;;;22.05;59.21;100609.34;5023321;28;20484;-66
2023/10/11 09:52:17;;;;;;;0.90;0.40;;;;;;;22.15;57.31;100626.91;5045224;28;20426;-69
2023/10/11 09:54:50;;;;;;;0.90;0.50;;;;;;;22.15;57.62;100607.63;5046666;28;20493;-68
2023/10/11 09:57:30;;;;;;;1.07;0.87;;;;;;;22.24;57.25;100598.47;5030229;28;20436;-68
2023/10/11 10:00:12;;;;;;;0.90;0.40;;;;;;;22.34;56.55;100608.59;5026480;28;20431;-68
2023/10/11 10:02:44;;;;;;;0.90;0.40;;;;;;;22.18;56.22;100598.78;5026226;28;20957;-68
2023/10/11 10:05:13;;;;;;;0.90;0.50;;;;;;;22.40;56.23;100601.94;5025948;28;20956;-67
2023/10/11 10:07:45;;;;;;;1.00;0.60;;;;;;;22.61;55.78;100592.38;5023730;28;20476;-70
2023/10/11 10:10:17;;;;;;;1.40;1.17;;;;;;;22.53;55.36;100606.78;5023334;28;20862;-67
2023/10/11 10:12:58;;;;;;;1.00;0.50;;;;;;;22.85;54.60;100609.84;5026192;28;20858;-67
2023/10/11 10:15:32;;;;;;;0.90;0.40;;;;;;;22.71;54.74;100614.38;5024205;28;20551;-69
2023/10/11 10:18:19;;;;;;;0.90;0.40;;;;;;;23.01;53.97;100623.50;5035143;28;20514;-70
2023/10/11 10:21:01;;;;;;;0.90;0.43;;;;;;;23.17;54.41;100616.72;5026340;28;20803;-69
2023/10/11 10:23:32;;;;;;;0.90;0.40;;;;;;;23.14;54.30;100617.31;5039107;28;20475;-70
2023/10/11 10:26:32;;;;;;;1.73;1.23;;;;;;;23.17;54.51;100612.03;5026322;28;20527;-69
2023/10/11 10:29:00;;;;;;;1.87;0.60;;;;;;;23.00;53.82;100613.56;5027043;28;20530;-67
2023/10/11 10:31:33;;;;;;;0.90;0.40;;;;;;;22.96;54.22;100608.63;5022398;28;21045;-67
2023/10/11 10:34:29;;;;;;;0.90;0.40;;;;;;;22.77;54.08;100601.38;5025324;28;20420;-68
2023/10/11 10:37:06;;;;;;;0.90;0.60;;;;;;;22.91;54.16;100605.94;5029778;28;20432;-68
2023/10/11 10:39:46;;;;;;;1.67;1.00;;;;;;;22.91;54.34;100603.16;5024109;28;20481;-65
2023/10/11 10:42:18;;;;;;;1.00;0.50;;;;;;;22.96;53.55;100600.34;5024473;28;20493;-68
2023/10/11 10:44:52;;;;;;;0.90;0.50;;;;;;;23.08;54.03;100590.88;5023311;28;20428;-68
2023/10/11 10:47:32;;;;;;;0.90;0.40;;;;;;;23.16;52.97;100592.97;5023395;28;20436;-70
2023/10/11 10:50:09;;;;;;;0.90;0.40;;;;;;;23.28;52.64;100591.47;5092457;28;20563;-68
2023/10/11 10:52:39;;;;;;;1.10;0.70;;;;;;;23.45;51.57;100591.00;5024757;28;20458;-69
2023/10/11 10:55:08;;;;;;;1.00;0.50;;;;;;;23.44;51.46;100597.63;5024943;28;20437;-67
2023/10/11 10:57:39;;;;;;;1.00;0.50;;;;;;;23.43;51.34;100598.72;5019326;28;20528;-67
2023/10/11 11:00:20;;;;;;;1.47;1.37;;;;;;;23.65;51.45;100604.56;5025712;28;20420;-68
2023/10/11 11:02:50;;;;;;;0.90;0.60;;;;;;;23.69;51.09;100600.09;5023182;28;21053;-66
2023/10/11 11:05:25;;;;;;;0.90;0.50;;;;;;;23.67;51.68;100587.72;5025323;28;20428;-69
2023/10/11 11:08:18;;;;;;;0.90;0.50;;;;;;;23.79;50.49;100577.03;5025338;28;20422;-69
2023/10/11 11:10:54;;;;;;;0.90;0.40;;;;;;;23.91;50.09;100569.13;5024137;28;20503;-69
2023/10/11 11:13:28;;;;;;;0.90;0.50;;;;;;;23.83;49.80;100576.13;5020566;28;20440;-67
2023/10/11 11:15:56;;;;;;;1.17;0.60;;;;;;;23.71;50.73;100570.25;5026161;28;20436;-70
2023/10/11 11:18:33;;;;;;;1.00;0.90;;;;;;;23.72;50.41;100566.34;5089837;28;20448;-67
2023/10/11 11:21:17;;;;;;;1.00;0.50;;;;;;;23.70;50.85;100563.06;5024364;28;20427;-68
2023/10/11 11:23:50;;;;;;;0.90;0.40;;;;;;;23.83;50.51;100553.22;5104105;27;20517;-68
2023/10/11 11:26:21;;;;;;;0.90;0.50;;;;;;;23.75;50.25;100554.72;5026572;28;20523;-71
2023/10/11 11:29:14;;;;;;;0.90;0.40;;;;;;;23.71;50.09;100550.09;5022078;28;20519;-65
2023/10/11 11:31:51;;;;;;;0.90;0.50;;;;;;;23.67;50.79;100543.50;5029207;28;20453;-67
2023/10/11 11:34:27;;;;;;;0.90;0.40;;;;;;;23.74;50.68;100538.44;5023539;28;20818;-69
2023/10/11 11:36:57;;;;;;;1.00;0.60;;;;;;;23.72;51.01;100537.91;5029186;28;20529;-70
2023/10/11 11:39:51;;;;;;;0.90;0.40;;;;;;;23.79;50.99;100539.19;5022055;28;20922;-67
2023/10/11 11:42:19;;;;;;;1.00;0.53;;;;;;;24.00;49.55;100538.88;5019747;28;20467;-69
2023/10/11 11:44:50;;;;;;;3.80;0.77;;;;;;;24.04;50.33;100537.97;5025981;28;20791;-67
2023/10/11 11:47:21;;;;;;;0.90;0.50;;;;;;;23.92;49.54;100534.00;5025897;28;20424;-72
2023/10/11 11:49:58;;;;;;;0.90;0.40;;;;;;;23.97;49.80;100531.16;5031430;28;20531;-70
2023/10/11 11:52:28;;;;;;;0.93;0.50;;;;;;;23.93;49.07;100524.59;5034353;28;20905;-68
2023/10/11 11:54:57;;;;;;;1.27;0.87;;;;;;;23.92;49.27;100534.00;5036309;28;20456;-69
2023/10/11 11:57:29;;;;;;;1.10;0.57;;;;;;;23.92;49.42;100526.53;5046721;28;20500;-69
2023/10/11 12:00:05;;;;;;;0.90;0.50;;;;;;;24.18;49.69;100524.25;5026893;28;20540;-68
2023/10/11 12:02:45;;;;;;;0.90;0.40;;;;;;;24.24;49.35;100529.41;5086343;28;20999;-71
2023/10/11 12:05:14;;;;;;;0.90;0.40;;;;;;;24.27;50.14;100518.84;5027047;28;20436;-69
2023/10/11 12:07:43;;;;;;;1.50;1.03;;;;;;;24.35;49.03;100510.66;5028537;28;20440;-67
2023/10/11 12:10:23;;;;;;;1.30;0.90;;;;;;;24.41;48.83;100515.00;5025681;28;20480;-70
2023/10/11 12:13:05;;;;;;;1.20;0.77;;;;;;;24.50;48.21;100513.16;5028745;28;20527;-68
2023/10/11 12:15:36;;;;;;;0.90;0.50;;;;;;;24.46;48.88;100514.09;5026349;28;20464;-70
2023/10/11 12:18:09;;;;;;;0.90;0.40;;;;;;;24.45;47.78;100512.44;5027748;28;20424;-67
2023/10/11 12:20:39;;;;;;;0.90;0.40;;;;;;;24.63;48.94;100501.34;5098002;28;20502;-69